메인 페이지
METAR-TAF:

METAR-TAF

공항 :

자그레브 국제공항

자그레브, 크로아티아

위도: 45-44N, 경도: 016-04E, 고도: 106m

현재 날씨관측

예보는 39분 전, 00:30시(UTC)에 발표되었습니다.
여러 방향의 바람 2kt
온도 18°C
습도 88%
기압 1015 hPa
시정 10km 이상
1500m 미만 상공 구름 및 적란운 없음

METAR: LDZA 150030Z VRB02KT CAVOK 18/16 Q1015 NOSIG

시각: 03:09 (01:09 UTC)

예보

예보는 1 시간 44분 전, 23:25시(UTC)에 발표되었습니다.
예보 대상 시간: 15일 00시부터 16일 00시까지 (UTC)
여러 방향의 바람 2kt
시정 10km 이상
1500m 미만 상공 구름 및 적란운 없음
일시적
15일 08시부터 15일 14시까지 (UTC)
북동8kt

TAF: LDZA 142325Z 1500/1600 VRB02KT CAVOK TX27/1513Z TN16/1504Z TEMPO 1508/1514 05008KT

4,000개 이상의 공항 관측 자료 및 예보 (METAR 및 TAF 보고).

지도상에서 검색 가능한 기상관측소가 노란 점과 빨간 점으로 표시되어 있습니다.

기상관측소 명을 보려면 표시 위로 마우스를 이동하세요.

날씨 관측과 예보를 보려면 클릭하세요.

지도 변경 : 확대하려면 엑스 표시가 있는 녹색 버튼, 축소하려면 빼기 표시가 있는 녹색 버튼, 다음 페이지의 지도를 보려면 녹색 화살표를 클릭하세요.


METAR-TAF: